Time;durP1;ratioP1;P1;durP2;ratioP2;P2;SDS_P1;SDS_P2;PMS_P1;PMS_P2;Temp;Humidity;BMP_temperature;BMP_pressure;BME280_temperature;BME280_humidity;BME280_pressure;Samples;Min_cycle;Max_cycle;Signal;HPM_P1;HPM_P2
2023/11/04 05:46:13;;;;;;;10.50;8.80;;;;;;;16.53;100.00;98367.11;101314;1291;601876;-66
2023/11/04 05:48:41;;;;;;;10.10;9.10;;;;;;;16.46;100.00;98363.98;103823;1267;61454;-65
2023/11/04 05:51:09;;;;;;;10.30;8.70;;;;;;;16.45;100.00;98361.41;103867;1265;59750;-65
2023/11/04 05:53:36;;;;;;;9.60;8.60;;;;;;;16.47;100.00;98356.83;103540;1269;72406;-66
2023/11/04 05:56:05;;;;;;;11.80;10.30;;;;;;;16.48;100.00;98355.52;103409;1283;69893;-65
2023/11/04 05:58:33;;;;;;;13.10;10.30;;;;;;;16.47;100.00;98358.09;103483;1275;73384;-66
2023/11/04 06:01:00;;;;;;;;;;;;;;;16.45;100.00;98362.16;103731;1264;232823;-64
2023/11/04 06:03:28;;;;;;;13.50;10.90;;;;;;;16.44;100.00;98367.88;103790;1265;59860;-65
2023/11/04 06:05:56;;;;;;;15.10;11.50;;;;;;;16.44;100.00;98368.41;103902;1263;72041;-65
2023/11/04 06:08:24;;;;;;;13.80;11.40;;;;;;;16.42;100.00;98365.98;103889;1269;69993;-66
2023/11/04 06:10:52;;;;;;;14.10;11.10;;;;;;;16.41;100.00;98368.15;103878;1268;72434;-68
2023/11/04 06:13:20;;;;;;;;;;;;;;;16.44;100.00;98375.45;104018;1272;60405;-69
2023/11/04 06:15:47;;;;;;;14.20;10.80;;;;;;;16.40;100.00;98376.73;103940;1261;59837;-69
2023/11/04 06:18:16;;;;;;;13.00;11.10;;;;;;;16.40;100.00;98377.48;103847;1264;72847;-63
2023/11/04 06:20:44;;;;;;;14.80;11.30;;;;;;;16.43;100.00;98370.29;106748;1259;69091;-69
2023/11/04 06:23:12;;;;;;;14.40;12.00;;;;;;;16.44;100.00;98357.21;104396;1269;72376;-62
2023/11/04 06:25:40;;;;;;;15.00;12.10;;;;;;;16.46;100.00;98350.69;104306;1260;61481;-61
2023/11/04 06:28:07;;;;;;;18.60;12.80;;;;;;;16.47;100.00;98361.02;104708;1260;59639;-65
2023/11/04 06:30:35;;;;;;;18.80;14.00;;;;;;;16.51;100.00;98364.61;104514;1262;72894;-67
2023/11/04 06:33:03;;;;;;;19.10;13.80;;;;;;;16.54;100.00;98369.33;104160;1276;69191;-67
2023/11/04 06:35:33;;;;;;;17.00;13.70;;;;;;;16.54;100.00;98365.97;104047;1272;72710;-68
2023/11/04 06:38:01;;;;;;;18.70;13.40;;;;;;;16.53;100.00;98353.42;104220;1260;61509;-67
2023/11/04 06:40:30;;;;;;;17.50;13.50;;;;;;;16.56;100.00;98360.25;103919;1264;59786;-66
2023/11/04 06:42:58;;;;;;;17.40;13.50;;;;;;;16.58;100.00;98367.69;103895;1262;72652;-67
2023/11/04 06:45:25;;;;;;;15.90;13.70;;;;;;;16.59;100.00;98359.28;107569;1260;70019;-67
2023/11/04 06:47:53;;;;;;;17.80;13.70;;;;;;;16.63;100.00;98358.23;107450;1258;73433;-69
2023/11/04 06:50:21;;;;;;;;;;;;;;;16.68;100.00;98362.05;107559;1259;61809;-67
2023/11/04 06:52:49;;;;;;;;;;;;;;;16.72;100.00;98346.80;107574;1260;59531;-69
2023/11/04 06:55:16;;;;;;;;;;;;;;;16.75;100.00;98341.13;107639;1259;72812;-68
2023/11/04 06:57:44;;;;;;;15.30;11.50;;;;;;;16.76;100.00;98346.87;107668;1259;70214;-67
2023/11/04 07:00:13;;;;;;;13.70;11.50;;;;;;;16.79;100.00;98357.56;107385;1262;72996;-68
2023/11/04 07:02:41;;;;;;;14.40;12.10;;;;;;;16.82;100.00;98361.05;107503;1259;61806;-69
2023/11/04 07:05:09;;;;;;;14.60;11.90;;;;;;;16.85;100.00;98364.99;107560;1260;59016;-68
2023/11/04 07:07:37;;;;;;;16.60;11.90;;;;;;;16.88;100.00;98364.41;107434;1260;72796;-69
2023/11/04 07:10:06;;;;;;;14.40;12.70;;;;;;;16.92;100.00;98362.30;107486;1259;70525;-69
2023/11/04 07:12:35;;;;;;;13.80;11.90;;;;;;;16.99;100.00;98357.61;107395;1260;72775;-68
2023/11/04 07:15:04;;;;;;;15.00;13.00;;;;;;;17.03;100.00;98354.93;107510;1260;61722;-68
2023/11/04 07:17:32;;;;;;;14.90;12.70;;;;;;;17.08;100.00;98353.80;107566;1259;59683;-68
2023/11/04 07:19:59;;;;;;;16.80;13.60;;;;;;;17.05;100.00;98355.47;107453;1260;73268;-69
2023/11/04 07:22:27;;;;;;;15.10;12.00;;;;;;;17.03;100.00;98358.10;107547;1259;69630;-68
2023/11/04 07:24:55;;;;;;;17.10;13.40;;;;;;;17.05;100.00;98359.39;107497;1260;72371;-68
2023/11/04 07:27:23;;;;;;;15.80;12.50;;;;;;;17.11;100.00;98353.50;107592;1260;61575;-69
2023/11/04 07:29:50;;;;;;;13.20;11.70;;;;;;;17.07;100.00;98350.08;107397;1260;59948;-70
2023/11/04 07:32:18;;;;;;;;;;;;;;;17.07;100.00;98353.10;107547;1259;73131;-69
2023/11/04 07:34:47;;;;;;;13.00;10.90;;;;;;;17.07;100.00;98351.00;107348;1260;69355;-69
2023/11/04 07:37:15;;;;;;;12.70;11.20;;;;;;;17.09;100.00;98351.90;107312;1260;72997;-73
2023/11/04 07:39:44;;;;;;;13.80;11.30;;;;;;;17.12;100.00;98360.17;107874;1256;61531;-67
2023/11/04 07:42:12;;;;;;;15.40;11.00;;;;;;;17.13;100.00;98362.46;107683;1256;60174;-68
2023/11/04 07:44:40;;;;;;;14.50;11.40;;;;;;;17.15;100.00;98345.55;107668;1258;72908;-67
2023/11/04 07:47:07;;;;;;;;;;;;;;;17.19;100.00;98340.92;107667;1256;69695;-68
2023/11/04 07:49:35;;;;;;;12.70;10.30;;;;;;;17.20;100.00;98337.82;107689;1256;72527;-67
2023/11/04 07:52:06;;;;;;;17.00;11.20;;;;;;;17.23;100.00;98328.34;107646;1256;60939;-68
2023/11/04 07:54:34;;;;;;;15.40;12.10;;;;;;;17.28;100.00;98332.14;107776;1257;58792;-68
2023/11/04 07:57:02;;;;;;;12.50;11.20;;;;;;;17.29;100.00;98336.42;107921;1256;72912;-68
2023/11/04 07:59:30;;;;;;;14.30;11.60;;;;;;;17.28;100.00;98343.09;107915;1256;69207;-67
2023/11/04 08:01:58;;;;;;;;;;;;;;;17.31;100.00;98337.48;107662;1257;72893;-68
2023/11/04 08:04:26;;;;;;;13.60;11.70;;;;;;;17.33;100.00;98339.06;107835;1257;62336;-67
2023/11/04 08:06:54;;;;;;;15.40;11.60;;;;;;;17.31;100.00;98341.45;108137;1256;59656;-67
2023/11/04 08:09:22;;;;;;;;;;;;;;;17.26;100.00;98340.75;108061;1254;72900;-67
2023/11/04 08:11:49;;;;;;;13.80;11.00;;;;;;;17.34;100.00;98337.21;108112;1253;69183;-67
2023/11/04 08:14:17;;;;;;;12.40;11.20;;;;;;;17.38;100.00;98332.45;108140;1253;73347;-67
2023/11/04 08:16:45;;;;;;;13.50;11.50;;;;;;;17.40;100.00;98331.94;108118;1255;61380;-67
2023/11/04 08:19:12;;;;;;;15.90;11.40;;;;;;;17.43;100.00;98339.02;108099;1255;59770;-67
2023/11/04 08:21:42;;;;;;;15.20;12.30;;;;;;;17.48;100.00;98348.15;107977;1253;72948;-67
2023/11/04 08:24:09;;;;;;;13.90;11.50;;;;;;;17.48;100.00;98349.36;108036;1253;69140;-66
2023/11/04 08:26:38;;;;;;;13.20;11.00;;;;;;;17.51;100.00;98336.36;108025;1254;73453;-66
2023/11/04 08:29:06;;;;;;;13.90;11.60;;;;;;;17.54;100.00;98333.85;108101;1255;61830;-67
2023/11/04 08:31:35;;;;;;;12.00;10.70;;;;;;;17.55;100.00;98334.41;108033;1254;60347;-67
2023/11/04 08:34:03;;;;;;;12.50;11.30;;;;;;;17.53;100.00;98323.47;107951;1255;72113;-67
2023/11/04 08:36:30;;;;;;;;;;;;;;;17.58;100.00;98328.34;108120;1255;69176;-67
2023/11/04 08:38:59;;;;;;;9.90;9.00;;;;;;;17.60;100.00;98325.09;108192;1253;72989;-66
2023/11/04 08:41:27;;;;;;;14.80;12.10;;;;;;;17.61;100.00;98329.29;107643;1257;61587;-67
2023/11/04 08:43:54;;;;;;;13.20;11.40;;;;;;;17.63;100.00;98330.52;107912;1255;59925;-69
2023/11/04 08:46:22;;;;;;;13.50;12.10;;;;;;;17.66;100.00;98328.41;107976;1254;72857;-69
2023/11/04 08:48:50;;;;;;;12.50;11.00;;;;;;;17.69;100.00;98326.05;107973;1255;69127;-69
2023/11/04 08:51:17;;;;;;;;;;;;;;;17.69;100.00;98323.67;107902;1254;73047;-69
2023/11/04 08:53:45;;;;;;;14.70;11.20;;;;;;;17.71;100.00;98322.83;108314;1253;62148;-69
2023/11/04 08:56:13;;;;;;;13.30;11.50;;;;;;;17.71;100.00;98315.06;108219;1253;60059;-70
2023/11/04 08:58:42;;;;;;;17.90;13.80;;;;;;;17.73;100.00;98312.79;108095;1255;73306;-70
2023/11/04 09:01:12;;;;;;;15.50;12.80;;;;;;;17.77;100.00;98311.34;108462;1251;70102;-67
2023/11/04 09:03:40;;;;;;;17.70;14.00;;;;;;;17.75;100.00;98312.77;108307;1251;72347;-69
2023/11/04 09:06:22;;;;;;;15.20;12.80;;;;;;;17.77;100.00;98315.94;108404;1251;61482;-69
2023/11/04 09:08:53;;;;;;;14.80;13.00;;;;;;;17.76;100.00;98311.60;108504;1251;60701;-69
2023/11/04 09:11:21;;;;;;;19.10;13.20;;;;;;;17.78;100.00;98295.48;108319;1251;75104;-69
2023/11/04 09:13:50;;;;;;;15.80;12.60;;;;;;;17.78;100.00;98284.61;108392;1251;70146;-69
2023/11/04 09:16:18;;;;;;;15.60;13.10;;;;;;;17.86;100.00;98287.77;108477;1251;72909;-69
2023/11/04 09:18:46;;;;;;;14.20;12.70;;;;;;;17.82;100.00;98285.33;108529;1253;61978;-70
2023/11/04 09:21:14;;;;;;;;;;;;;;;17.80;100.00;98277.17;108496;1251;60077;-69
2023/11/04 09:23:41;;;;;;;12.90;10.10;;;;;;;17.90;100.00;98275.02;108372;1252;72865;-69
2023/11/04 09:26:12;;;;;;;12.00;10.40;;;;;;;17.96;100.00;98277.02;108451;1251;69418;-69
2023/11/04 09:28:39;;;;;;;;;;;;;;;17.99;100.00;98275.62;108506;1251;72511;-69
2023/11/04 09:31:07;;;;;;;12.50;10.80;;;;;;;18.01;100.00;98274.84;108375;1252;62372;-69
2023/11/04 09:33:35;;;;;;;12.00;10.70;;;;;;;18.06;100.00;98268.38;108533;1251;59437;-70
2023/11/04 09:36:04;;;;;;;11.80;10.60;;;;;;;18.09;100.00;98271.48;108442;1251;73721;-68
2023/11/04 09:38:33;;;;;;;11.70;10.50;;;;;;;18.10;100.00;98268.69;108448;1251;70588;-69
2023/11/04 09:41:00;;;;;;;10.90;9.80;;;;;;;18.16;100.00;98263.35;108280;1251;73416;-69
2023/11/04 09:43:28;;;;;;;11.80;10.00;;;;;;;18.18;100.00;98260.52;108352;1254;61799;-68
2023/11/04 09:45:56;;;;;;;11.70;10.60;;;;;;;18.21;100.00;98248.14;108256;1253;59672;-69
2023/11/04 09:48:23;;;;;;;11.90;10.80;;;;;;;18.22;100.00;98235.79;108327;1251;72883;-68
2023/11/04 09:50:51;;;;;;;12.30;10.10;;;;;;;18.20;100.00;98227.29;108377;1252;69161;-68
2023/11/04 09:53:24;;;;;;;12.20;10.30;;;;;;;18.22;100.00;98225.13;107991;1253;72780;-69
2023/11/04 09:55:53;;;;;;;12.90;10.20;;;;;;;18.20;100.00;98220.52;108125;1253;61414;-68
2023/11/04 09:58:20;;;;;;;10.90;9.70;;;;;;;18.22;100.00;98217.66;108492;1252;59911;-68
2023/11/04 10:00:48;;;;;;;11.50;10.00;;;;;;;18.26;100.00;98215.58;108366;1253;73582;-68
2023/11/04 10:03:16;;;;;;;12.70;10.20;;;;;;;18.28;100.00;98218.04;108355;1252;69220;-68
2023/11/04 10:05:44;;;;;;;14.10;11.60;;;;;;;18.28;100.00;98210.17;108380;1253;72405;-66
2023/11/04 10:08:12;;;;;;;13.80;12.40;;;;;;;18.27;100.00;98202.85;108373;1252;61760;-63
2023/11/04 10:10:39;;;;;;;17.80;13.60;;;;;;;18.23;100.00;98202.52;108441;1253;59700;-68
2023/11/04 10:13:07;;;;;;;15.70;13.20;;;;;;;18.25;100.00;98202.00;108397;1251;72688;-69
2023/11/04 10:15:35;;;;;;;17.80;14.10;;;;;;;18.26;100.00;98197.10;108456;1251;69267;-69
2023/11/04 10:18:03;;;;;;;15.70;13.70;;;;;;;18.26;100.00;98197.62;108369;1253;71400;-70
2023/11/04 10:20:31;;;;;;;17.00;14.50;;;;;;;18.27;100.00;98193.41;108314;1253;60881;-69
2023/11/04 10:22:59;;;;;;;18.30;15.70;;;;;;;18.26;100.00;98191.24;108471;1253;60008;-70
2023/11/04 10:25:27;;;;;;;21.20;16.20;;;;;;;18.32;100.00;98193.00;108333;1253;74707;-70
2023/11/04 10:27:55;;;;;;;21.00;17.70;;;;;;;18.34;100.00;98190.52;108288;1252;69475;-68
2023/11/04 10:30:22;;;;;;;;;;;;;;;18.34;100.00;98186.98;108032;1253;72274;-70
2023/11/04 10:32:52;;;;;;;;;;;;;;;18.35;100.00;98179.98;108343;1252;62029;-68
2023/11/04 10:35:20;;;;;;;19.50;16.00;;;;;;;18.33;100.00;98175.65;108392;1251;59551;-69
2023/11/04 10:37:48;;;;;;;23.90;18.20;;;;;;;18.34;100.00;98169.77;108420;1251;74295;-71
2023/11/04 10:40:16;;;;;;;21.20;16.40;;;;;;;18.35;100.00;98159.73;108423;1252;69286;-69
2023/11/04 10:42:48;;;;;;;20.60;15.80;;;;;;;18.37;100.00;98151.05;108393;1253;73353;-69
2023/11/04 10:45:18;;;;;;;18.80;15.50;;;;;;;18.38;100.00;98147.13;108424;1251;61741;-68
2023/11/04 10:47:58;;;;;;;20.60;15.40;;;;;;;18.39;100.00;98146.36;108515;1251;60871;-62
2023/11/04 10:50:33;;;;;;;21.00;15.30;;;;;;;18.40;100.00;98142.33;108409;1252;73654;-69
2023/11/04 10:53:22;;;;;;;17.00;14.50;;;;;;;18.41;100.00;98149.30;108421;1251;69219;-70
2023/11/04 10:55:58;;;;;;;17.40;14.20;;;;;;;18.42;100.00;98158.24;108403;1253;72513;-70
2023/11/04 10:58:49;;;;;;;18.30;15.00;;;;;;;18.47;100.00;98157.10;108471;1253;61689;-70
2023/11/04 11:01:18;;;;;;;19.50;14.80;;;;;;;18.51;100.00;98151.21;108142;1251;62751;-68
2023/11/04 11:03:47;;;;;;;15.80;14.20;;;;;;;18.54;100.00;98150.08;108499;1252;73575;-66
2023/11/04 11:06:15;;;;;;;16.20;14.50;;;;;;;18.50;100.00;98148.47;108474;1256;69624;-66
2023/11/04 11:08:43;;;;;;;17.40;13.90;;;;;;;18.49;100.00;98141.95;108431;1251;73143;-64
2023/11/04 11:14:13;;;;;;;15.60;13.90;;;;;;;17.97;100.00;98137.98;101549;1292;601417;-66
2023/11/04 11:16:41;;;;;;;;;;;;;;;18.48;100.00;98134.98;103772;1275;61792;-66
2023/11/04 11:19:09;;;;;;;15.20;12.70;;;;;;;18.50;100.00;98130.88;104110;1265;59689;-67
2023/11/04 11:21:50;;;;;;;15.80;13.20;;;;;;;18.53;100.00;98126.91;103655;1283;72083;-68
2023/11/04 11:24:20;;;;;;;13.60;12.20;;;;;;;18.50;100.00;98133.02;103627;1270;68698;-65
2023/11/04 11:26:54;;;;;;;18.80;15.30;;;;;;;18.51;100.00;98131.48;103378;1276;386669;-65
2023/11/04 11:29:22;;;;;;;16.10;13.20;;;;;;;18.50;100.00;98125.36;104134;1266;61701;-67
2023/11/04 11:31:51;;;;;;;15.60;13.00;;;;;;;18.48;100.00;98118.68;103988;1267;59753;-67
2023/11/04 11:34:19;;;;;;;14.10;12.60;;;;;;;18.43;100.00;98114.33;103980;1275;71966;-68
2023/11/04 11:36:47;;;;;;;17.60;12.90;;;;;;;18.39;100.00;98110.48;104296;1263;70145;-68
2023/11/04 11:39:15;;;;;;;15.50;11.20;;;;;;;18.39;100.00;98104.52;104237;1266;72403;-69
2023/11/04 11:41:43;;;;;;;16.70;13.00;;;;;;;18.38;100.00;98101.20;107287;1257;61398;-68
2023/11/04 11:44:12;;;;;;;;;;;;;;;18.38;100.00;98098.24;107614;1257;60172;-69
2023/11/04 11:46:41;;;;;;;13.30;11.20;;;;;;;18.33;100.00;98088.71;106561;1257;72817;-68
2023/11/04 11:49:09;;;;;;;16.60;12.30;;;;;;;18.38;100.00;98092.52;107585;1257;69384;-68
2023/11/04 11:51:37;;;;;;;12.90;11.20;;;;;;;18.38;100.00;98097.51;105653;1259;72357;-68
2023/11/04 11:54:05;;;;;;;17.60;11.70;;;;;;;18.36;100.00;98089.88;104467;1267;62267;-68
2023/11/04 11:56:33;;;;;;;15.10;11.50;;;;;;;18.37;100.00;98083.01;104319;1257;59668;-69
2023/11/04 11:59:06;;;;;;;15.20;10.80;;;;;;;18.41;100.00;98069.90;104393;1257;71710;-68
2023/11/04 12:01:34;;;;;;;14.90;11.60;;;;;;;18.41;100.00;98064.95;104135;1263;68068;-67
2023/11/04 12:04:05;;;;;;;14.40;11.00;;;;;;;18.43;100.00;98067.19;104003;1263;72483;-67
2023/11/04 12:06:36;;;;;;;16.70;11.40;;;;;;;18.44;100.00;98066.36;104181;1260;61449;-68
2023/11/04 12:09:05;;;;;;;16.30;12.80;;;;;;;18.43;100.00;98058.98;104082;1260;60011;-67
2023/11/04 12:11:33;;;;;;;14.10;11.70;;;;;;;18.44;100.00;98053.12;104353;1262;71740;-68
2023/11/04 12:14:01;;;;;;;12.70;10.80;;;;;;;18.43;100.00;98041.98;104334;1258;68440;-67
2023/11/04 12:16:29;;;;;;;;;;;;;;;18.45;100.00;98040.04;104314;1261;72238;-67
2023/11/04 12:18:57;;;;;;;13.20;10.20;;;;;;;18.47;100.00;98050.29;104208;1260;61828;-67
2023/11/04 12:21:25;;;;;;;;;;;;;;;18.51;100.00;98054.52;104206;1257;59759;-67
2023/11/04 12:23:53;;;;;;;12.00;10.00;;;;;;;18.50;100.00;98054.20;104165;1263;73327;-68
2023/11/04 12:26:39;;;;;;;10.80;9.50;;;;;;;18.47;100.00;98045.80;104207;1263;69070;-68
2023/11/04 12:29:09;;;;;;;14.90;10.10;;;;;;;18.53;100.00;98050.10;105650;1257;71720;-66
2023/11/04 12:31:39;;;;;;;9.90;8.90;;;;;;;18.45;100.00;98049.98;107833;1257;60612;-67
2023/11/04 12:34:06;;;;;;;11.30;10.00;;;;;;;18.48;100.00;98050.50;105331;1259;59814;-67
2023/11/04 12:36:34;;;;;;;11.20;9.00;;;;;;;18.48;100.00;98045.21;104367;1258;73047;-66
2023/11/04 12:39:03;;;;;;;15.80;9.00;;;;;;;18.48;100.00;98041.31;104169;1263;69224;-67
2023/11/04 12:41:31;;;;;;;10.50;9.10;;;;;;;18.53;100.00;98048.66;104080;1257;73184;-67
2023/11/04 12:44:02;;;;;;;11.40;9.30;;;;;;;18.52;100.00;98044.34;104414;1257;61679;-67
2023/11/04 12:46:30;;;;;;;10.30;8.80;;;;;;;18.52;100.00;98036.31;104029;1258;60677;-67
2023/11/04 12:49:00;;;;;;;12.40;10.10;;;;;;;18.51;100.00;98035.16;104178;1271;72854;-67
2023/11/04 12:51:29;;;;;;;11.20;9.40;;;;;;;18.51;100.00;98041.38;104360;1257;69859;-67
2023/11/04 12:53:57;;;;;;;12.00;9.40;;;;;;;18.54;100.00;98035.90;104237;1257;72720;-67
2023/11/04 12:56:24;;;;;;;;;;;;;;;18.53;100.00;98029.31;104230;1258;62091;-67
2023/11/04 12:58:53;;;;;;;10.90;8.80;;;;;;;18.52;100.00;98029.74;104325;1257;59730;-67
2023/11/04 13:01:21;;;;;;;12.80;10.50;;;;;;;18.48;100.00;98028.31;104170;1257;72176;-67
2023/11/04 13:03:49;;;;;;;11.70;10.50;;;;;;;18.48;100.00;98026.89;104316;1263;69544;-67
2023/11/04 13:06:17;;;;;;;13.20;11.20;;;;;;;18.54;100.00;98021.75;104638;1260;72740;-67
2023/11/04 13:08:45;;;;;;;14.30;11.40;;;;;;;18.55;100.00;98019.54;104612;1257;62574;-66
2023/11/04 13:11:12;;;;;;;14.60;11.70;;;;;;;18.54;100.00;98017.98;104158;1257;61608;-67
2023/11/04 13:13:40;;;;;;;17.00;10.90;;;;;;;18.54;100.00;98019.60;104334;1257;72845;-66
2023/11/04 13:16:09;;;;;;;13.90;11.40;;;;;;;18.54;100.00;98018.55;104021;1276;72083;-66
2023/11/04 13:18:36;;;;;;;14.90;12.40;;;;;;;18.55;100.00;98008.48;104036;1279;73354;-66
2023/11/04 13:21:04;;;;;;;;;;;;;;;18.57;100.00;98006.38;104489;1258;62084;-65
2023/11/04 13:23:33;;;;;;;19.10;13.50;;;;;;;18.54;100.00;98007.92;104481;1259;59724;-68
2023/11/04 13:26:01;;;;;;;17.30;12.40;;;;;;;18.51;100.00;98006.58;104130;1269;72834;-66
2023/11/04 13:28:29;;;;;;;14.80;11.60;;;;;;;18.53;100.00;98002.36;104280;1279;69612;-66
2023/11/04 13:30:57;;;;;;;15.10;10.80;;;;;;;18.55;100.00;98000.84;104207;1258;73571;-66
2023/11/04 13:33:25;;;;;;;14.70;11.70;;;;;;;18.59;100.00;98001.04;104190;1273;62068;-66
2023/11/04 13:35:53;;;;;;;15.70;12.10;;;;;;;18.59;100.00;97998.64;104261;1258;60035;-66
2023/11/04 13:38:22;;;;;;;17.40;12.10;;;;;;;18.59;100.00;97991.06;104077;1257;73030;-67
2023/11/04 13:40:50;;;;;;;15.00;11.40;;;;;;;18.61;100.00;97990.47;105623;1257;69525;-66
2023/11/04 13:43:18;;;;;;;14.90;11.80;;;;;;;18.61;100.00;97992.11;107298;1256;72671;-66
2023/11/04 13:45:46;;;;;;;13.40;11.90;;;;;;;18.66;100.00;97993.14;107589;1257;61579;-68
2023/11/04 13:48:14;;;;;;;;;;;;;;;18.67;100.00;97983.32;104585;1260;59843;-67
2023/11/04 13:50:42;;;;;;;12.80;10.60;;;;;;;18.68;100.00;97978.29;104692;1257;73121;-66
2023/11/04 13:53:09;;;;;;;15.60;11.70;;;;;;;18.66;100.00;97966.25;104835;1258;69211;-66
2023/11/04 13:55:37;;;;;;;16.40;11.60;;;;;;;18.71;100.00;97954.50;104426;1273;71856;-67
2023/11/04 13:58:05;;;;;;;;;;;;;;;18.71;100.00;97953.52;104370;1263;61525;-67
2023/11/04 14:00:33;;;;;;;;;;;;;;;18.71;100.00;97948.80;104560;1260;59827;-68
2023/11/04 14:03:01;;;;;;;12.20;10.60;;;;;;;18.75;100.00;97934.80;104468;1252;73127;-67
2023/11/04 14:05:28;;;;;;;;;;;;;;;18.75;100.00;97927.73;104461;1257;69340;-67
2023/11/04 14:07:57;;;;;;;13.40;10.80;;;;;;;18.74;100.00;97926.77;104796;1268;75224;-67
2023/11/04 14:10:24;;;;;;;13.00;10.50;;;;;;;18.75;100.00;97926.99;104499;1254;61582;-67
2023/11/04 14:12:52;;;;;;;;;;;;;;;18.80;100.00;97925.71;104513;1260;59780;-66
2023/11/04 14:15:20;;;;;;;13.00;10.90;;;;;;;18.81;100.00;97929.35;104637;1253;72770;-66
2023/11/04 14:17:47;;;;;;;13.00;10.90;;;;;;;18.83;100.00;97927.36;104376;1256;69063;-67
2023/11/04 14:20:16;;;;;;;15.80;12.10;;;;;;;18.79;100.00;97919.33;104517;1258;73341;-66
2023/11/04 14:22:44;;;;;;;13.00;11.40;;;;;;;18.79;100.00;97911.61;104438;1269;60449;-66
2023/11/04 14:25:12;;;;;;;14.20;11.40;;;;;;;18.84;100.00;97904.96;104448;1266;60007;-68
2023/11/04 14:27:40;;;;;;;14.80;11.90;;;;;;;18.83;100.00;97907.33;104338;1254;72969;-67
2023/11/04 14:30:08;;;;;;;16.60;11.50;;;;;;;18.82;100.00;97910.11;104480;1254;68316;-67
2023/11/04 14:32:36;;;;;;;18.40;12.70;;;;;;;18.81;100.00;97904.86;104730;1254;73219;-66
2023/11/04 14:35:05;;;;;;;13.40;11.60;;;;;;;18.85;100.00;97899.29;108342;1252;61398;-67
2023/11/04 14:37:34;;;;;;;20.30;13.40;;;;;;;18.85;100.00;97902.34;105713;1257;59837;-68
2023/11/04 14:40:06;;;;;;;14.80;11.80;;;;;;;18.82;100.00;97902.64;106583;1252;73046;-67
2023/11/04 14:42:37;;;;;;;15.10;13.10;;;;;;;18.83;100.00;97897.40;104622;1260;70166;-66
2023/11/04 14:45:05;;;;;;;20.20;13.60;;;;;;;18.83;100.00;97898.85;104307;1266;74726;-66
2023/11/04 14:47:32;;;;;;;17.40;13.20;;;;;;;18.85;100.00;97896.86;104771;1260;60819;-66
2023/11/04 14:50:02;;;;;;;;;;;;;;;18.88;100.00;97897.92;104666;1257;59680;-63
2023/11/04 14:52:31;;;;;;;17.60;12.60;;;;;;;18.83;100.00;97895.14;104632;1263;73257;-64
2023/11/04 14:54:59;;;;;;;15.60;12.90;;;;;;;18.75;100.00;97900.17;104675;1257;68343;-64
2023/11/04 14:57:27;;;;;;;16.60;13.40;;;;;;;18.79;100.00;97897.80;104510;1255;72481;-66
2023/11/04 14:59:55;;;;;;;21.00;14.20;;;;;;;18.82;100.00;97895.90;104478;1254;61423;-65
2023/11/04 15:02:23;;;;;;;20.20;14.70;;;;;;;18.89;100.00;97886.89;104437;1257;59772;-66
2023/11/04 15:04:51;;;;;;;18.50;14.40;;;;;;;18.88;100.00;97879.52;104771;1256;71900;-64
2023/11/04 15:07:19;;;;;;;21.60;16.00;;;;;;;18.90;100.00;97880.60;104566;1259;72898;-64
2023/11/04 15:09:48;;;;;;;21.90;16.70;;;;;;;18.93;100.00;97882.40;104432;1257;72678;-65
2023/11/04 15:12:20;;;;;;;22.30;16.40;;;;;;;18.92;100.00;97880.00;104506;1254;61654;-64
2023/11/04 15:14:48;;;;;;;23.40;17.00;;;;;;;18.91;100.00;97879.36;104323;1263;60906;-65
2023/11/04 15:17:16;;;;;;;23.90;16.10;;;;;;;18.93;100.00;97881.30;108394;1253;73248;-65
2023/11/04 15:19:44;;;;;;;;;;;;;;;18.94;100.00;97874.42;108445;1252;69321;-66
2023/11/04 15:22:11;;;;;;;;;;;;;;;18.97;100.00;97873.09;108508;1252;72724;-67
2023/11/04 15:24:39;;;;;;;17.60;13.90;;;;;;;18.99;100.00;97870.51;108495;1253;60856;-62
2023/11/04 15:27:07;;;;;;;;;;;;;;;19.01;100.00;97865.50;108475;1252;60711;-61
2023/11/04 15:29:34;;;;;;;21.20;14.30;;;;;;;19.02;100.00;97855.34;108375;1252;73575;-65
2023/11/04 15:32:02;;;;;;;20.40;15.30;;;;;;;19.01;100.00;97852.73;108505;1252;70627;-66
2023/11/04 15:34:31;;;;;;;25.40;16.00;;;;;;;19.01;100.00;97846.14;108385;1253;73034;-66
2023/11/04 15:36:59;;;;;;;;;;;;;;;19.02;100.00;97838.95;108466;1252;61465;-66
2023/11/04 15:39:26;;;;;;;24.10;15.30;;;;;;;19.06;100.00;97831.27;108535;1253;58504;-65
2023/11/04 15:41:54;;;;;;;25.60;16.00;;;;;;;19.08;100.00;97828.71;108557;1254;74021;-65
2023/11/04 15:44:22;;;;;;;21.70;15.00;;;;;;;19.13;100.00;97830.84;108473;1254;69627;-66
2023/11/04 15:46:50;;;;;;;24.70;16.70;;;;;;;19.20;100.00;97833.71;108419;1252;72341;-66
2023/11/04 15:49:18;;;;;;;24.10;16.20;;;;;;;19.20;100.00;97832.77;108384;1251;62596;-65
2023/11/04 15:51:46;;;;;;;21.60;16.10;;;;;;;19.19;100.00;97826.63;108428;1253;59878;-65
2023/11/04 15:54:14;;;;;;;18.90;15.40;;;;;;;19.21;100.00;97819.03;108376;1251;73943;-64
2023/11/04 15:56:42;;;;;;;25.00;15.60;;;;;;;19.23;100.00;97802.92;108316;1253;68725;-65
2023/11/04 15:59:09;;;;;;;26.60;15.70;;;;;;;19.26;100.00;97796.73;108367;1253;72291;-65
2023/11/04 16:01:37;;;;;;;23.90;15.40;;;;;;;19.27;100.00;97792.64;108432;1253;61780;-65
2023/11/04 16:04:05;;;;;;;22.10;14.60;;;;;;;19.33;100.00;97793.23;108023;1252;60943;-65
2023/11/04 16:06:33;;;;;;;;;;;;;;;19.33;100.00;97796.03;108550;1252;76485;-66
2023/11/04 16:09:02;;;;;;;19.70;14.10;;;;;;;19.34;100.00;97793.41;108457;1251;68532;-64
2023/11/04 16:11:30;;;;;;;24.90;15.30;;;;;;;19.33;100.00;97781.61;108509;1252;71446;-65
2023/11/04 16:13:57;;;;;;;22.50;14.50;;;;;;;19.36;100.00;97777.21;108481;1253;61636;-68
2023/11/04 16:16:25;;;;;;;17.30;14.00;;;;;;;19.36;100.00;97768.33;108597;1252;58863;-66
2023/11/04 16:18:55;;;;;;;21.70;14.50;;;;;;;19.40;100.00;97768.85;108584;1253;74517;-65
2023/11/04 16:21:23;;;;;;;19.40;13.30;;;;;;;19.41;100.00;97766.22;108438;1252;70345;-66
2023/11/04 16:23:51;;;;;;;;;;;;;;;19.42;100.00;97757.69;108503;1254;72448;-66
2023/11/04 16:26:18;;;;;;;16.10;12.30;;;;;;;19.49;100.00;97749.60;108534;1251;60673;-66
2023/11/04 16:28:46;;;;;;;23.00;14.40;;;;;;;19.52;100.00;97746.89;108522;1253;59962;-65
2023/11/04 16:31:23;;;;;;;23.20;13.20;;;;;;;19.53;100.00;97744.09;108583;1253;73670;-65
2023/11/04 16:33:51;;;;;;;20.40;12.40;;;;;;;19.60;100.00;97745.45;108477;1252;68699;-67
2023/11/04 16:36:19;;;;;;;;;;;;;;;19.60;100.00;97746.58;108510;1253;73402;-67
2023/11/04 16:38:47;;;;;;;22.80;13.50;;;;;;;19.60;100.00;97738.05;108349;1253;62432;-67
2023/11/04 16:41:15;;;;;;;18.60;13.40;;;;;;;19.58;100.00;97741.42;108543;1251;58725;-66
2023/11/04 16:43:42;;;;;;;19.60;13.30;;;;;;;19.61;100.00;97738.66;108460;1251;74428;-66
2023/11/04 16:46:10;;;;;;;22.40;13.20;;;;;;;19.60;100.00;97736.72;108576;1252;68805;-67
2023/11/04 16:48:38;;;;;;;19.80;13.10;;;;;;;19.63;100.00;97731.64;108485;1253;72362;-67
2023/11/04 16:51:06;;;;;;;19.90;13.10;;;;;;;19.62;100.00;97730.15;108490;1253;61504;-68
2023/11/04 16:53:34;;;;;;;19.10;14.10;;;;;;;19.66;100.00;97718.30;108629;1251;59638;-67
2023/11/04 16:56:02;;;;;;;18.90;12.60;;;;;;;19.72;100.00;97710.25;108610;1253;73653;-67
2023/11/04 16:58:30;;;;;;;19.80;13.50;;;;;;;19.74;100.00;97708.42;108491;1252;68503;-67
2023/11/04 17:00:57;;;;;;;;;;;;;;;19.76;100.00;97707.18;108526;1252;73516;-67
2023/11/04 17:03:25;;;;;;;13.90;12.20;;;;;;;19.75;100.00;97686.05;108527;1251;61544;-68
2023/11/04 17:05:53;;;;;;;21.50;12.00;;;;;;;19.78;100.00;97684.11;108457;1251;59765;-66